sensor_id;sensor_type;location;lat;lon;timestamp;pressure;altitude;pressure_sealevel;temperature;humidity
59391;BME280;53405;57.012;40.984;2024-02-14T00:00:51;101535.09;;;-16.79;83.04
59391;BME280;53405;57.012;40.984;2024-02-14T00:03:18;101560.66;;;-16.64;83.20
59391;BME280;53405;57.012;40.984;2024-02-14T00:05:47;101565.56;;;-16.70;83.17
59391;BME280;53405;57.012;40.984;2024-02-14T00:08:15;101561.34;;;-16.69;83.52
59391;BME280;53405;57.012;40.984;2024-02-14T00:10:43;101563.91;;;-16.68;83.79
59391;BME280;53405;57.012;40.984;2024-02-14T00:13:12;101568.06;;;-16.71;83.17
59391;BME280;53405;57.012;40.984;2024-02-14T00:15:40;101536.69;;;-16.84;83.58
59391;BME280;53405;57.012;40.984;2024-02-14T00:18:09;101554.44;;;-16.80;83.55
59391;BME280;53405;57.012;40.984;2024-02-14T00:20:37;101565.34;;;-16.79;83.62
59391;BME280;53405;57.012;40.984;2024-02-14T00:23:07;101557.69;;;-16.84;83.67
59391;BME280;53405;57.012;40.984;2024-02-14T00:25:35;101562.00;;;-16.80;83.65
59391;BME280;53405;57.012;40.984;2024-02-14T00:28:03;101542.44;;;-16.92;83.53
59391;BME280;53405;57.012;40.984;2024-02-14T00:30:31;101551.69;;;-16.92;83.18
59391;BME280;53405;57.012;40.984;2024-02-14T00:33:24;101566.94;;;-16.86;83.35
59391;BME280;53405;57.012;40.984;2024-02-14T00:35:53;101573.53;;;-16.93;83.28
59391;BME280;53405;57.012;40.984;2024-02-14T00:38:21;101560.81;;;-16.97;83.19
59391;BME280;53405;57.012;40.984;2024-02-14T00:40:49;101559.03;;;-17.01;83.29
59391;BME280;53405;57.012;40.984;2024-02-14T00:43:17;101543.59;;;-17.15;83.18
59391;BME280;53405;57.012;40.984;2024-02-14T00:45:44;101579.06;;;-17.07;83.08
59391;BME280;53405;57.012;40.984;2024-02-14T00:48:13;101572.44;;;-17.04;83.13
59391;BME280;53405;57.012;40.984;2024-02-14T00:50:41;101588.44;;;-17.02;83.24
59391;BME280;53405;57.012;40.984;2024-02-14T00:53:08;101575.66;;;-17.10;82.92
59391;BME280;53405;57.012;40.984;2024-02-14T00:55:36;101539.00;;;-17.33;82.91
59391;BME280;53405;57.012;40.984;2024-02-14T00:58:04;101546.34;;;-17.42;82.81
59391;BME280;53405;57.012;40.984;2024-02-14T01:00:32;101583.88;;;-17.17;82.82
59391;BME280;53405;57.012;40.984;2024-02-14T01:03:03;101578.69;;;-17.24;83.06
59391;BME280;53405;57.012;40.984;2024-02-14T01:05:31;101582.84;;;-17.25;83.14
59391;BME280;53405;57.012;40.984;2024-02-14T01:07:59;101561.44;;;-17.42;83.31
59391;BME280;53405;57.012;40.984;2024-02-14T01:10:27;101584.31;;;-17.35;83.04
59391;BME280;53405;57.012;40.984;2024-02-14T01:12:55;101587.47;;;-17.42;82.67
59391;BME280;53405;57.012;40.984;2024-02-14T01:15:23;101596.66;;;-17.44;82.89
59391;BME280;53405;57.012;40.984;2024-02-14T01:17:50;101595.00;;;-17.43;82.87
59391;BME280;53405;57.012;40.984;2024-02-14T01:20:18;101595.75;;;-17.48;82.93
59391;BME280;53405;57.012;40.984;2024-02-14T01:22:46;101573.50;;;-17.64;82.88
59391;BME280;53405;57.012;40.984;2024-02-14T01:25:30;101607.34;;;-17.54;82.79
59391;BME280;53405;57.012;40.984;2024-02-14T01:27:58;101579.28;;;-17.68;82.97
59391;BME280;53405;57.012;40.984;2024-02-14T01:30:27;101606.31;;;-17.61;83.12
59391;BME280;53405;57.012;40.984;2024-02-14T01:32:55;101597.75;;;-17.68;83.14
59391;BME280;53405;57.012;40.984;2024-02-14T01:35:23;101605.31;;;-17.68;83.14
59391;BME280;53405;57.012;40.984;2024-02-14T01:37:51;101614.47;;;-17.71;82.82
59391;BME280;53405;57.012;40.984;2024-02-14T01:40:19;101583.00;;;-17.89;83.11
59391;BME280;53405;57.012;40.984;2024-02-14T01:43:03;101608.50;;;-17.75;83.19
59391;BME280;53405;57.012;40.984;2024-02-14T01:45:31;101582.03;;;-17.92;83.28
59391;BME280;53405;57.012;40.984;2024-02-14T01:48:16;101567.31;;;-18.10;83.22
59391;BME280;53405;57.012;40.984;2024-02-14T01:50:46;101601.41;;;-17.90;83.01
59391;BME280;53405;57.012;40.984;2024-02-14T01:53:14;101582.41;;;-18.10;82.70
59391;BME280;53405;57.012;40.984;2024-02-14T01:55:43;101624.91;;;-17.89;82.82
59391;BME280;53405;57.012;40.984;2024-02-14T01:58:13;101576.28;;;-18.20;82.80
59391;BME280;53405;57.012;40.984;2024-02-14T02:00:41;101623.03;;;-17.98;82.75
59391;BME280;53405;57.012;40.984;2024-02-14T02:03:13;101590.56;;;-18.21;82.71
59391;BME280;53405;57.012;40.984;2024-02-14T02:05:42;101635.50;;;-18.01;82.57
59391;BME280;53405;57.012;40.984;2024-02-14T02:08:09;101616.94;;;-18.06;82.50
59391;BME280;53405;57.012;40.984;2024-02-14T02:10:37;101639.78;;;-17.98;82.54
59391;BME280;53405;57.012;40.984;2024-02-14T02:13:28;101632.19;;;-18.00;82.55
59391;BME280;53405;57.012;40.984;2024-02-14T02:16:16;101627.78;;;-18.07;82.42
59391;BME280;53405;57.012;40.984;2024-02-14T02:19:06;101604.00;;;-18.18;82.43
59391;BME280;53405;57.012;40.984;2024-02-14T02:21:56;101650.69;;;-17.98;82.19
59391;BME280;53405;57.012;40.984;2024-02-14T02:24:23;101644.66;;;-18.05;81.99
59391;BME280;53405;57.012;40.984;2024-02-14T02:26:51;101657.38;;;-18.00;82.09
59391;BME280;53405;57.012;40.984;2024-02-14T02:29:39;101643.59;;;-18.11;82.13
59391;BME280;53405;57.012;40.984;2024-02-14T02:32:07;101668.81;;;-18.10;82.13
59391;BME280;53405;57.012;40.984;2024-02-14T02:34:37;101670.53;;;-18.09;82.00
59391;BME280;53405;57.012;40.984;2024-02-14T02:37:06;101634.63;;;-18.32;81.90
59391;BME280;53405;57.012;40.984;2024-02-14T02:40:09;101677.97;;;-18.12;82.13
59391;BME280;53405;57.012;40.984;2024-02-14T02:43:00;101666.84;;;-18.20;82.19
59391;BME280;53405;57.012;40.984;2024-02-14T02:45:47;101637.81;;;-18.39;82.14
59391;BME280;53405;57.012;40.984;2024-02-14T02:48:35;101680.09;;;-18.26;82.05
59391;BME280;53405;57.012;40.984;2024-02-14T02:51:17;101692.09;;;-18.17;82.05
59391;BME280;53405;57.012;40.984;2024-02-14T02:54:07;101708.09;;;-18.15;81.67
59391;BME280;53405;57.012;40.984;2024-02-14T02:56:56;101705.47;;;-18.18;81.82
59391;BME280;53405;57.012;40.984;2024-02-14T02:59:24;101646.84;;;-18.46;81.93
59391;BME280;53405;57.012;40.984;2024-02-14T03:01:52;101673.09;;;-18.36;81.67
59391;BME280;53405;57.012;40.984;2024-02-14T03:04:39;101683.97;;;-18.37;81.37
59391;BME280;53405;57.012;40.984;2024-02-14T03:07:39;101708.47;;;-18.31;81.56
59391;BME280;53405;57.012;40.984;2024-02-14T03:10:26;101704.22;;;-18.32;81.54
59391;BME280;53405;57.012;40.984;2024-02-14T03:13:15;101705.00;;;-18.33;81.46
59391;BME280;53405;57.012;40.984;2024-02-14T03:16:04;101707.56;;;-18.32;81.60
59391;BME280;53405;57.012;40.984;2024-02-14T03:18:33;101674.34;;;-18.50;81.47
59391;BME280;53405;57.012;40.984;2024-02-14T03:21:01;101698.06;;;-18.42;81.53
59391;BME280;53405;57.012;40.984;2024-02-14T03:23:28;101713.09;;;-18.44;81.50
59391;BME280;53405;57.012;40.984;2024-02-14T03:25:57;101702.06;;;-18.49;81.31
59391;BME280;53405;57.012;40.984;2024-02-14T03:28:25;101710.41;;;-18.50;81.53
59391;BME280;53405;57.012;40.984;2024-02-14T03:30:53;101634.56;;;-18.93;81.31
59391;BME280;53405;57.012;40.984;2024-02-14T03:33:21;101716.22;;;-18.51;81.24
59391;BME280;53405;57.012;40.984;2024-02-14T03:35:49;101719.63;;;-18.50;81.29
59391;BME280;53405;57.012;40.984;2024-02-14T03:38:29;101692.19;;;-18.70;81.35
59391;BME280;53405;57.012;40.984;2024-02-14T03:40:59;101714.94;;;-18.65;81.11
59391;BME280;53405;57.012;40.984;2024-02-14T03:43:26;101728.38;;;-18.65;81.43
59391;BME280;53405;57.012;40.984;2024-02-14T03:45:55;101725.78;;;-18.68;81.35
59391;BME280;53405;57.012;40.984;2024-02-14T03:48:23;101726.69;;;-18.66;81.36
59391;BME280;53405;57.012;40.984;2024-02-14T03:50:51;101731.66;;;-18.67;81.18
59391;BME280;53405;57.012;40.984;2024-02-14T03:53:19;101713.56;;;-18.84;81.32
59391;BME280;53405;57.012;40.984;2024-02-14T03:55:47;101720.31;;;-18.82;81.26
59391;BME280;53405;57.012;40.984;2024-02-14T03:58:16;101715.03;;;-18.91;81.21
59391;BME280;53405;57.012;40.984;2024-02-14T04:00:49;101742.09;;;-18.81;81.22
59391;BME280;53405;57.012;40.984;2024-02-14T04:03:18;101744.78;;;-18.76;81.28
59391;BME280;53405;57.012;40.984;2024-02-14T04:05:46;101677.94;;;-19.24;80.98
59391;BME280;53405;57.012;40.984;2024-02-14T04:08:15;101750.41;;;-18.83;81.26
59391;BME280;53405;57.012;40.984;2024-02-14T04:10:43;101733.44;;;-18.90;81.15
59391;BME280;53405;57.012;40.984;2024-02-14T04:13:12;101743.66;;;-18.86;80.86
59391;BME280;53405;57.012;40.984;2024-02-14T04:15:40;101716.03;;;-19.12;80.92
59391;BME280;53405;57.012;40.984;2024-02-14T04:18:21;101767.16;;;-18.84;81.10
59391;BME280;53405;57.012;40.984;2024-02-14T04:20:49;101774.59;;;-18.87;80.87
59391;BME280;53405;57.012;40.984;2024-02-14T04:23:17;101736.91;;;-19.13;80.89
59391;BME280;53405;57.012;40.984;2024-02-14T04:25:45;101745.59;;;-19.03;81.00
59391;BME280;53405;57.012;40.984;2024-02-14T04:28:12;101695.16;;;-19.35;81.16
59391;BME280;53405;57.012;40.984;2024-02-14T04:30:40;101766.84;;;-18.95;80.93
59391;BME280;53405;57.012;40.984;2024-02-14T04:33:21;101789.50;;;-18.93;81.29
59391;BME280;53405;57.012;40.984;2024-02-14T04:35:49;101781.03;;;-18.95;80.87
59391;BME280;53405;57.012;40.984;2024-02-14T04:38:17;101756.16;;;-19.13;80.95
59391;BME280;53405;57.012;40.984;2024-02-14T04:40:47;101781.88;;;-18.96;81.06
59391;BME280;53405;57.012;40.984;2024-02-14T04:43:15;101786.88;;;-18.96;81.04
59391;BME280;53405;57.012;40.984;2024-02-14T04:45:43;101791.88;;;-18.98;80.68
59391;BME280;53405;57.012;40.984;2024-02-14T04:48:16;101768.66;;;-19.15;80.68
59391;BME280;53405;57.012;40.984;2024-02-14T04:50:44;101781.44;;;-19.08;80.89
59391;BME280;53405;57.012;40.984;2024-02-14T04:53:12;101797.53;;;-19.03;80.87
59391;BME280;53405;57.012;40.984;2024-02-14T04:55:40;101782.91;;;-19.14;80.48
59391;BME280;53405;57.012;40.984;2024-02-14T04:58:07;101777.88;;;-19.15;80.68
59391;BME280;53405;57.012;40.984;2024-02-14T05:00:35;101799.13;;;-19.05;80.59
59391;BME280;53405;57.012;40.984;2024-02-14T05:03:03;101809.13;;;-19.07;80.72
59391;BME280;53405;57.012;40.984;2024-02-14T05:05:31;101746.56;;;-19.49;80.38
59391;BME280;53405;57.012;40.984;2024-02-14T05:08:03;101815.78;;;-19.07;80.49
59391;BME280;53405;57.012;40.984;2024-02-14T05:10:31;101794.53;;;-19.17;80.41
59391;BME280;53405;57.012;40.984;2024-02-14T05:12:59;101752.47;;;-19.47;80.26
59391;BME280;53405;57.012;40.984;2024-02-14T05:15:29;101824.78;;;-19.14;80.35
59391;BME280;53405;57.012;40.984;2024-02-14T05:17:57;101822.31;;;-19.13;80.52
59391;BME280;53405;57.012;40.984;2024-02-14T05:20:25;101829.06;;;-19.12;80.59
59391;BME280;53405;57.012;40.984;2024-02-14T05:22:53;101821.19;;;-19.21;80.62
59391;BME280;53405;57.012;40.984;2024-02-14T05:25:21;101816.97;;;-19.22;80.74
59391;BME280;53405;57.012;40.984;2024-02-14T05:28:01;101822.09;;;-19.19;81.05
59391;BME280;53405;57.012;40.984;2024-02-14T05:30:29;101791.19;;;-19.42;80.67
59391;BME280;53405;57.012;40.984;2024-02-14T05:33:15;101834.78;;;-19.16;80.82
59391;BME280;53405;57.012;40.984;2024-02-14T05:35:43;101844.06;;;-19.13;80.48
59391;BME280;53405;57.012;40.984;2024-02-14T05:38:11;101855.09;;;-19.09;80.74
59391;BME280;53405;57.012;40.984;2024-02-14T05:40:38;101820.72;;;-19.35;80.46
59391;BME280;53405;57.012;40.984;2024-02-14T05:43:07;101864.00;;;-19.18;80.39
59391;BME280;53405;57.012;40.984;2024-02-14T05:45:34;101876.63;;;-19.16;80.27
59391;BME280;53405;57.012;40.984;2024-02-14T05:48:02;101880.03;;;-19.14;80.21
59391;BME280;53405;57.012;40.984;2024-02-14T05:50:31;101874.97;;;-19.16;80.14
59391;BME280;53405;57.012;40.984;2024-02-14T05:52:59;101881.03;;;-19.09;80.48
59391;BME280;53405;57.012;40.984;2024-02-14T05:55:26;101887.16;;;-19.02;80.64
59391;BME280;53405;57.012;40.984;2024-02-14T05:58:02;101876.28;;;-19.01;80.46
59391;BME280;53405;57.012;40.984;2024-02-14T06:00:33;101865.34;;;-19.03;80.45
59391;BME280;53405;57.012;40.984;2024-02-14T06:03:04;101875.72;;;-18.94;80.20
59391;BME280;53405;57.012;40.984;2024-02-14T06:05:35;101896.16;;;-18.85;80.10
59391;BME280;53405;57.012;40.984;2024-02-14T06:08:03;101876.03;;;-18.85;80.18
59391;BME280;53405;57.012;40.984;2024-02-14T06:10:31;101889.91;;;-18.70;80.42
59391;BME280;53405;57.012;40.984;2024-02-14T06:12:59;101894.19;;;-18.68;80.08
59391;BME280;53405;57.012;40.984;2024-02-14T06:15:27;101887.34;;;-18.72;80.15
59391;BME280;53405;57.012;40.984;2024-02-14T06:17:55;101896.50;;;-18.74;80.18
59391;BME280;53405;57.012;40.984;2024-02-14T06:20:23;101895.63;;;-18.75;80.50
59391;BME280;53405;57.012;40.984;2024-02-14T06:22:52;101902.09;;;-18.81;80.17
59391;BME280;53405;57.012;40.984;2024-02-14T06:25:31;101901.41;;;-18.77;80.77
59391;BME280;53405;57.012;40.984;2024-02-14T06:28:14;101906.50;;;-18.76;80.67
59391;BME280;53405;57.012;40.984;2024-02-14T06:30:41;101879.09;;;-18.94;80.82
59391;BME280;53405;57.012;40.984;2024-02-14T06:33:10;101913.81;;;-18.82;80.75
59391;BME280;53405;57.012;40.984;2024-02-14T06:35:38;101917.34;;;-18.77;81.20
59391;BME280;53405;57.012;40.984;2024-02-14T06:38:06;101907.44;;;-18.72;80.83
59391;BME280;53405;57.012;40.984;2024-02-14T06:40:34;101917.00;;;-18.62;80.93
59391;BME280;53405;57.012;40.984;2024-02-14T06:43:01;101865.13;;;-18.85;80.86
59391;BME280;53405;57.012;40.984;2024-02-14T06:45:32;101913.13;;;-18.53;80.67
59391;BME280;53405;57.012;40.984;2024-02-14T06:48:19;101911.59;;;-18.48;80.84
59391;BME280;53405;57.012;40.984;2024-02-14T06:50:52;101916.53;;;-18.51;80.34
59391;BME280;53405;57.012;40.984;2024-02-14T06:53:20;101866.19;;;-18.79;80.34
59391;BME280;53405;57.012;40.984;2024-02-14T06:55:48;101916.84;;;-18.42;80.95
59391;BME280;53405;57.012;40.984;2024-02-14T06:58:15;101907.91;;;-18.34;80.56
59391;BME280;53405;57.012;40.984;2024-02-14T07:00:43;101893.00;;;-18.28;80.30
59391;BME280;53405;57.012;40.984;2024-02-14T07:03:12;101915.84;;;-18.22;80.49
59391;BME280;53405;57.012;40.984;2024-02-14T07:05:39;101893.50;;;-18.38;79.99
59391;BME280;53405;57.012;40.984;2024-02-14T07:08:07;101908.34;;;-18.20;80.18
59391;BME280;53405;57.012;40.984;2024-02-14T07:10:35;101915.44;;;-18.08;80.43
59391;BME280;53405;57.012;40.984;2024-02-14T07:13:03;101909.38;;;-17.88;80.16
59391;BME280;53405;57.012;40.984;2024-02-14T07:15:31;101904.59;;;-17.78;80.14
59391;BME280;53405;57.012;40.984;2024-02-14T07:17:59;101919.38;;;-17.62;79.68
59391;BME280;53405;57.012;40.984;2024-02-14T07:20:27;101925.16;;;-17.65;79.12
59391;BME280;53405;57.012;40.984;2024-02-14T07:22:56;101912.47;;;-17.68;79.48
59391;BME280;53405;57.012;40.984;2024-02-14T07:25:25;101923.13;;;-17.49;79.30
59391;BME280;53405;57.012;40.984;2024-02-14T07:27:53;101929.28;;;-17.39;79.15
59391;BME280;53405;57.012;40.984;2024-02-14T07:30:20;101902.75;;;-17.57;78.57
59391;BME280;53405;57.012;40.984;2024-02-14T07:32:48;101927.69;;;-17.36;79.04
59391;BME280;53405;57.012;40.984;2024-02-14T07:35:16;101913.38;;;-17.38;78.45
59391;BME280;53405;57.012;40.984;2024-02-14T07:37:44;101922.41;;;-17.16;78.53
59391;BME280;53405;57.012;40.984;2024-02-14T07:40:15;101917.94;;;-17.25;77.98
59391;BME280;53405;57.012;40.984;2024-02-14T07:43:05;101905.91;;;-17.35;78.24
59391;BME280;53405;57.012;40.984;2024-02-14T07:45:34;101894.75;;;-17.42;78.19
59391;BME280;53405;57.012;40.984;2024-02-14T07:48:03;101929.31;;;-17.09;78.56
59391;BME280;53405;57.012;40.984;2024-02-14T07:50:31;101921.66;;;-17.12;77.98
59391;BME280;53405;57.012;40.984;2024-02-14T07:52:59;101924.28;;;-17.09;77.68
59391;BME280;53405;57.012;40.984;2024-02-14T07:55:26;101920.03;;;-17.12;77.98
59391;BME280;53405;57.012;40.984;2024-02-14T07:57:55;101922.75;;;-17.04;77.92
59391;BME280;53405;57.012;40.984;2024-02-14T08:00:23;101916.25;;;-16.96;78.07
59391;BME280;53405;57.012;40.984;2024-02-14T08:02:51;101923.25;;;-16.84;77.75
59391;BME280;53405;57.012;40.984;2024-02-14T08:05:19;101898.31;;;-16.75;78.35
59391;BME280;53405;57.012;40.984;2024-02-14T08:07:47;101930.78;;;-16.22;77.31
59391;BME280;53405;57.012;40.984;2024-02-14T08:10:15;101908.53;;;-16.37;76.52
59391;BME280;53405;57.012;40.984;2024-02-14T08:12:44;101927.88;;;-16.37;76.26
59391;BME280;53405;57.012;40.984;2024-02-14T08:15:12;101907.38;;;-16.49;76.34
59391;BME280;53405;57.012;40.984;2024-02-14T08:17:40;101918.97;;;-15.88;76.14
59391;BME280;53405;57.012;40.984;2024-02-14T08:20:12;101933.31;;;-15.49;73.93
59391;BME280;53405;57.012;40.984;2024-02-14T08:22:55;101929.78;;;-15.57;73.58
59391;BME280;53405;57.012;40.984;2024-02-14T08:25:23;101932.34;;;-15.55;74.01
59391;BME280;53405;57.012;40.984;2024-02-14T08:27:51;101929.03;;;-15.51;73.67
59391;BME280;53405;57.012;40.984;2024-02-14T08:30:19;101937.09;;;-15.30;73.78
59391;BME280;53405;57.012;40.984;2024-02-14T08:32:47;101878.28;;;-15.22;72.69
59391;BME280;53405;57.012;40.984;2024-02-14T08:35:15;101936.31;;;-14.87;72.04
59391;BME280;53405;57.012;40.984;2024-02-14T08:37:43;101913.09;;;-15.09;72.36
59391;BME280;53405;57.012;40.984;2024-02-14T08:40:10;101925.19;;;-15.35;73.07
59391;BME280;53405;57.012;40.984;2024-02-14T08:42:40;101919.00;;;-15.48;73.61
59391;BME280;53405;57.012;40.984;2024-02-14T08:45:08;101929.81;;;-15.16;74.02
59391;BME280;53405;57.012;40.984;2024-02-14T08:47:37;101936.19;;;-14.92;73.01
59391;BME280;53405;57.012;40.984;2024-02-14T08:50:05;101923.03;;;-14.76;73.06
59391;BME280;53405;57.012;40.984;2024-02-14T08:52:34;101927.97;;;-14.36;72.36
59391;BME280;53405;57.012;40.984;2024-02-14T08:55:01;101925.44;;;-14.34;72.11
59391;BME280;53405;57.012;40.984;2024-02-14T08:57:30;101864.53;;;-14.93;72.36
59391;BME280;53405;57.012;40.984;2024-02-14T08:59:59;101928.03;;;-14.79;72.57
59391;BME280;53405;57.012;40.984;2024-02-14T09:02:30;101935.22;;;-14.99;73.72
59391;BME280;53405;57.012;40.984;2024-02-14T09:04:58;101919.72;;;-15.16;74.54
59391;BME280;53405;57.012;40.984;2024-02-14T09:07:26;101945.09;;;-15.11;74.82
59391;BME280;53405;57.012;40.984;2024-02-14T09:09:53;101945.13;;;-15.10;75.57
59391;BME280;53405;57.012;40.984;2024-02-14T09:12:22;101938.28;;;-15.14;75.87
59391;BME280;53405;57.012;40.984;2024-02-14T09:14:49;101951.91;;;-15.07;75.71
59391;BME280;53405;57.012;40.984;2024-02-14T09:17:17;101944.50;;;-14.98;76.67
59391;BME280;53405;57.012;40.984;2024-02-14T09:19:45;101919.03;;;-15.07;75.70
59391;BME280;53405;57.012;40.984;2024-02-14T09:22:12;101937.13;;;-14.87;75.85
59391;BME280;53405;57.012;40.984;2024-02-14T09:24:45;101933.84;;;-14.84;76.27
59391;BME280;53405;57.012;40.984;2024-02-14T09:27:13;101928.97;;;-14.75;75.91
59391;BME280;53405;57.012;40.984;2024-02-14T09:29:42;101939.16;;;-14.70;75.37
59391;BME280;53405;57.012;40.984;2024-02-14T09:32:10;101938.41;;;-14.65;75.60
59391;BME280;53405;57.012;40.984;2024-02-14T09:34:38;101932.63;;;-14.58;75.27
59391;BME280;53405;57.012;40.984;2024-02-14T09:37:06;101935.41;;;-14.44;75.15
59391;BME280;53405;57.012;40.984;2024-02-14T09:39:34;101922.84;;;-14.39;75.16
59391;BME280;53405;57.012;40.984;2024-02-14T09:42:08;101931.44;;;-14.29;74.69
59391;BME280;53405;57.012;40.984;2024-02-14T09:44:38;101935.84;;;-14.18;75.05
59391;BME280;53405;57.012;40.984;2024-02-14T09:47:08;101908.94;;;-14.11;74.93
59391;BME280;53405;57.012;40.984;2024-02-14T09:49:37;101921.09;;;-13.93;74.84
59391;BME280;53405;57.012;40.984;2024-02-14T09:52:06;101922.84;;;-13.89;74.05
59391;BME280;53405;57.012;40.984;2024-02-14T09:54:34;101911.84;;;-13.89;74.42
59391;BME280;53405;57.012;40.984;2024-02-14T09:57:06;101920.34;;;-13.84;73.83
59391;BME280;53405;57.012;40.984;2024-02-14T09:59:36;101923.84;;;-13.79;73.93
59391;BME280;53405;57.012;40.984;2024-02-14T10:02:04;101923.91;;;-13.74;74.36
59391;BME280;53405;57.012;40.984;2024-02-14T10:04:33;101881.34;;;-13.95;73.44
59391;BME280;53405;57.012;40.984;2024-02-14T10:07:00;101903.41;;;-13.88;73.00
59391;BME280;53405;57.012;40.984;2024-02-14T10:09:29;101930.50;;;-13.84;72.35
59391;BME280;53405;57.012;40.984;2024-02-14T10:11:57;101917.72;;;-13.93;72.60
59391;BME280;53405;57.012;40.984;2024-02-14T10:14:25;101921.16;;;-13.88;72.74
59391;BME280;53405;57.012;40.984;2024-02-14T10:16:53;101921.22;;;-13.84;73.38
59391;BME280;53405;57.012;40.984;2024-02-14T10:19:21;101919.63;;;-13.77;72.50
59391;BME280;53405;57.012;40.984;2024-02-14T10:21:56;101921.31;;;-13.79;72.17
59391;BME280;53405;57.012;40.984;2024-02-14T10:24:26;101923.84;;;-13.79;72.51
59391;BME280;53405;57.012;40.984;2024-02-14T10:26:55;101921.47;;;-13.68;72.76
59391;BME280;53405;57.012;40.984;2024-02-14T10:29:26;101886.56;;;-13.85;73.12
59391;BME280;53405;57.012;40.984;2024-02-14T10:31:54;101927.50;;;-13.60;73.11
59391;BME280;53405;57.012;40.984;2024-02-14T10:34:25;101919.06;;;-13.57;72.96
59391;BME280;53405;57.012;40.984;2024-02-14T10:36:56;101884.28;;;-13.69;73.14
59391;BME280;53405;57.012;40.984;2024-02-14T10:39:25;101876.72;;;-13.66;72.81
59391;BME280;53405;57.012;40.984;2024-02-14T10:41:54;101909.00;;;-13.53;72.87
59391;BME280;53405;57.012;40.984;2024-02-14T10:44:22;101910.78;;;-13.47;72.43
59391;BME280;53405;57.012;40.984;2024-02-14T10:46:51;101918.28;;;-13.53;72.65
59391;BME280;53405;57.012;40.984;2024-02-14T10:49:20;101913.97;;;-13.59;72.44
59391;BME280;53405;57.012;40.984;2024-02-14T10:51:50;101907.28;;;-13.55;72.82
59391;BME280;53405;57.012;40.984;2024-02-14T10:54:21;101895.44;;;-13.56;72.39
59391;BME280;53405;57.012;40.984;2024-02-14T10:56:49;101915.97;;;-13.39;72.64
59391;BME280;53405;57.012;40.984;2024-02-14T10:59:21;101920.19;;;-13.38;71.97
59391;BME280;53405;57.012;40.984;2024-02-14T11:01:51;101919.34;;;-13.39;72.29
59391;BME280;53405;57.012;40.984;2024-02-14T11:04:20;101915.94;;;-13.41;71.64
59391;BME280;53405;57.012;40.984;2024-02-14T11:06:52;101917.63;;;-13.40;71.38
59391;BME280;53405;57.012;40.984;2024-02-14T11:12:34;101868.94;;;-13.78;71.71
59391;BME280;53405;57.012;40.984;2024-02-14T11:15:19;101908.97;;;-13.54;71.31
59391;BME280;53405;57.012;40.984;2024-02-14T11:17:48;101915.00;;;-13.48;71.85
59391;BME280;53405;57.012;40.984;2024-02-14T11:20:18;101894.81;;;-13.41;71.74
59391;BME280;53405;57.012;40.984;2024-02-14T11:25:31;101886.66;;;-13.16;71.12
59391;BME280;53405;57.012;40.984;2024-02-14T11:28:00;101904.81;;;-12.79;70.67
59391;BME280;53405;57.012;40.984;2024-02-14T11:30:36;101897.16;;;-12.85;70.50
59391;BME280;53405;57.012;40.984;2024-02-14T11:35:48;101912.69;;;-12.56;69.45
59391;BME280;53405;57.012;40.984;2024-02-14T11:38:22;101865.63;;;-13.04;69.04
59391;BME280;53405;57.012;40.984;2024-02-14T11:40:53;101920.28;;;-12.60;69.45
59391;BME280;53405;57.012;40.984;2024-02-14T11:43:22;101913.66;;;-12.44;68.46
59391;BME280;53405;57.012;40.984;2024-02-14T11:45:50;101884.81;;;-12.52;68.27
59391;BME280;53405;57.012;40.984;2024-02-14T11:48:20;101901.13;;;-12.29;67.60
59391;BME280;53405;57.012;40.984;2024-02-14T11:50:49;101923.13;;;-12.29;67.95
59391;BME280;53405;57.012;40.984;2024-02-14T11:53:19;101930.78;;;-12.28;67.72
59391;BME280;53405;57.012;40.984;2024-02-14T11:55:48;101935.81;;;-12.31;68.24
59391;BME280;53405;57.012;40.984;2024-02-14T11:58:17;101919.81;;;-12.21;67.87
59391;BME280;53405;57.012;40.984;2024-02-14T12:00:46;101929.97;;;-12.19;67.56
59391;BME280;53405;57.012;40.984;2024-02-14T12:03:24;101934.94;;;-12.31;67.99
59391;BME280;53405;57.012;40.984;2024-02-14T12:05:53;101931.69;;;-12.20;68.05
59391;BME280;53405;57.012;40.984;2024-02-14T12:08:22;101930.72;;;-12.31;67.84
59391;BME280;53405;57.012;40.984;2024-02-14T12:10:50;101929.91;;;-12.27;67.83
59391;BME280;53405;57.012;40.984;2024-02-14T12:13:21;101883.13;;;-12.52;67.07
59391;BME280;53405;57.012;40.984;2024-02-14T12:15:51;101926.59;;;-12.20;67.25
59391;BME280;53405;57.012;40.984;2024-02-14T12:18:20;101924.28;;;-11.87;67.09
59391;BME280;53405;57.012;40.984;2024-02-14T12:20:51;101930.28;;;-11.84;66.60
59391;BME280;53405;57.012;40.984;2024-02-14T12:23:23;101931.88;;;-11.96;66.30
59391;BME280;53405;57.012;40.984;2024-02-14T12:26:01;101941.97;;;-12.06;66.82
59391;BME280;53405;57.012;40.984;2024-02-14T12:28:30;101932.63;;;-12.07;67.57
59391;BME280;53405;57.012;40.984;2024-02-14T12:30:59;101925.84;;;-12.08;67.39
59391;BME280;53405;57.012;40.984;2024-02-14T12:33:27;101914.75;;;-12.19;67.59
59391;BME280;53405;57.012;40.984;2024-02-14T12:35:56;101932.44;;;-12.28;67.41
59391;BME280;53405;57.012;40.984;2024-02-14T12:38:26;101889.56;;;-12.82;68.25
59391;BME280;53405;57.012;40.984;2024-02-14T12:40:54;101938.81;;;-12.64;68.61
59391;BME280;53405;57.012;40.984;2024-02-14T12:43:22;101941.34;;;-12.67;69.08
59391;BME280;53405;57.012;40.984;2024-02-14T12:45:50;101935.41;;;-12.69;69.12
59391;BME280;53405;57.012;40.984;2024-02-14T12:48:23;101945.47;;;-12.76;69.52
59391;BME280;53405;57.012;40.984;2024-02-14T12:50:56;101926.59;;;-12.99;69.79
59391;BME280;53405;57.012;40.984;2024-02-14T12:53:25;101955.44;;;-12.93;69.65
59391;BME280;53405;57.012;40.984;2024-02-14T12:55:57;101943.38;;;-13.09;70.07